createdAt,value
2022-10-04T00:01:58.936Z,12.11
2022-10-04T00:04:37.413Z,12.06
2022-10-04T00:07:11.075Z,12.04
2022-10-04T00:09:48.069Z,12.05
2022-10-04T00:12:23.230Z,12.00
2022-10-04T00:14:55.989Z,11.94
2022-10-04T00:17:31.633Z,11.94
2022-10-04T00:20:04.966Z,11.95
2022-10-04T00:22:35.455Z,11.84
2022-10-04T00:25:25.690Z,11.78
2022-10-04T00:28:30.504Z,11.69
2022-10-04T00:31:12.802Z,11.73
2022-10-04T00:33:43.518Z,11.71
2022-10-04T00:36:48.683Z,11.72
2022-10-04T00:39:28.852Z,11.72
2022-10-04T00:42:09.422Z,11.63
2022-10-04T00:44:47.626Z,11.62
2022-10-04T00:47:26.407Z,11.69
2022-10-04T00:50:03.549Z,11.66
2022-10-04T00:52:39.860Z,11.60
2022-10-04T00:55:12.696Z,11.62
2022-10-04T00:57:46.757Z,11.62
2022-10-04T01:00:19.634Z,11.63
2022-10-04T01:02:55.511Z,11.62
2022-10-04T01:05:29.271Z,11.62
2022-10-04T01:08:09.124Z,11.62
2022-10-04T01:10:44.172Z,11.62
2022-10-04T01:13:19.580Z,11.66
2022-10-04T01:15:56.363Z,11.69
2022-10-04T01:18:33.903Z,11.70
2022-10-04T01:24:37.469Z,11.71
2022-10-04T01:27:27.533Z,11.69
2022-10-04T01:30:00.416Z,11.70
2022-10-04T01:32:31.216Z,11.70
2022-10-04T01:35:01.437Z,11.65
2022-10-04T01:37:34.098Z,11.78
2022-10-04T01:40:04.345Z,11.78
2022-10-04T01:42:39.449Z,11.72
2022-10-04T01:45:19.798Z,11.75
2022-10-04T01:47:55.971Z,11.68
2022-10-04T01:50:32.979Z,11.67
2022-10-04T01:53:11.069Z,11.62
2022-10-04T01:55:43.987Z,11.61
2022-10-04T01:58:17.294Z,11.64
2022-10-04T02:00:54.940Z,11.70
2022-10-04T02:03:31.334Z,11.70
2022-10-04T02:06:03.921Z,11.71
2022-10-04T02:08:36.628Z,11.61
2022-10-04T02:11:08.075Z,11.64
2022-10-04T02:13:40.689Z,11.53
2022-10-04T02:16:16.083Z,11.60
2022-10-04T02:18:47.365Z,11.56
2022-10-04T02:21:18.055Z,11.57
2022-10-04T02:23:49.056Z,11.60
2022-10-04T02:26:18.706Z,11.69
2022-10-04T02:28:48.274Z,11.62
2022-10-04T02:31:45.900Z,11.66
2022-10-04T02:34:16.463Z,11.53
2022-10-04T02:36:46.615Z,11.61
2022-10-04T02:39:21.634Z,11.61
2022-10-04T02:41:55.652Z,11.54
2022-10-04T02:44:30.888Z,11.49
2022-10-04T02:47:10.520Z,11.56
2022-10-04T02:49:42.907Z,11.45
2022-10-04T02:52:16.435Z,11.46
2022-10-04T02:54:52.836Z,11.42
2022-10-04T02:57:24.492Z,11.44
2022-10-04T03:00:04.573Z,11.45
2022-10-04T03:02:36.722Z,11.48
2022-10-04T03:05:10.079Z,11.48
2022-10-04T03:07:41.494Z,11.43
2022-10-04T03:10:15.278Z,11.43
2022-10-04T03:12:45.638Z,11.45
2022-10-04T03:15:18.384Z,11.45
2022-10-04T03:17:51.093Z,11.46
2022-10-04T03:20:22.168Z,11.49
2022-10-04T03:22:56.207Z,11.51
2022-10-04T03:25:31.198Z,11.55
2022-10-04T03:28:05.278Z,11.54
2022-10-04T03:30:37.093Z,11.55
2022-10-04T03:33:09.429Z,11.58
2022-10-04T03:35:42.330Z,11.61
2022-10-04T03:38:15.104Z,11.61
2022-10-04T03:40:51.668Z,11.51
2022-10-04T03:43:22.467Z,11.49
2022-10-04T03:45:52.521Z,11.50
2022-10-04T03:48:33.345Z,11.55
2022-10-04T03:51:05.360Z,11.53
2022-10-04T03:53:43.595Z,11.57
2022-10-04T03:56:15.809Z,11.63
2022-10-04T03:58:46.954Z,11.64
2022-10-04T04:01:38.855Z,11.62
2022-10-04T04:04:22.308Z,11.63
2022-10-04T04:07:00.499Z,11.65
2022-10-04T04:09:41.611Z,11.64
2022-10-04T04:12:17.470Z,11.62
2022-10-04T04:14:51.635Z,11.64
2022-10-04T04:17:39.121Z,11.63
2022-10-04T04:20:23.463Z,11.58
2022-10-04T04:23:01.529Z,11.58
2022-10-04T04:25:33.928Z,11.59
2022-10-04T04:28:11.193Z,11.53
2022-10-04T04:30:46.552Z,11.54
2022-10-04T04:33:24.698Z,11.62
2022-10-04T04:36:06.723Z,11.60
2022-10-04T04:38:58.060Z,11.60
2022-10-04T04:41:29.757Z,11.64
2022-10-04T04:43:59.471Z,11.67
2022-10-04T04:46:30.473Z,11.64
2022-10-04T04:49:05.124Z,11.64
2022-10-04T04:51:37.375Z,11.65
2022-10-04T04:54:09.546Z,11.63
2022-10-04T04:56:39.235Z,11.57
2022-10-04T04:59:12.022Z,11.57
2022-10-04T05:01:47.201Z,11.61
2022-10-04T05:04:22.684Z,11.61
2022-10-04T05:07:04.352Z,11.61
2022-10-04T05:09:36.287Z,11.61
2022-10-04T05:12:11.112Z,11.58
2022-10-04T05:14:43.825Z,11.58
2022-10-04T05:17:21.996Z,11.52
2022-10-04T05:19:53.392Z,11.52
2022-10-04T05:22:28.101Z,11.51
2022-10-04T05:25:00.822Z,11.56
2022-10-04T05:27:33.720Z,11.60
2022-10-04T05:30:10.020Z,11.59
2022-10-04T05:32:50.929Z,11.54
2022-10-04T05:35:22.490Z,11.63
2022-10-04T05:38:06.168Z,11.66
2022-10-04T05:40:47.213Z,11.70
2022-10-04T05:43:32.934Z,11.77
2022-10-04T05:46:18.738Z,11.73
2022-10-04T05:48:50.260Z,11.75
2022-10-04T05:51:22.900Z,11.72
2022-10-04T05:53:55.988Z,11.80
2022-10-04T05:56:56.457Z,11.74
2022-10-04T05:59:42.938Z,11.85
2022-10-04T06:02:27.454Z,11.95
2022-10-04T06:05:06.833Z,12.02
2022-10-04T06:07:42.745Z,11.97
2022-10-04T06:10:31.422Z,11.92
2022-10-04T06:13:06.927Z,11.91
2022-10-04T06:15:59.184Z,11.99
2022-10-04T06:19:11.507Z,11.93
2022-10-04T06:21:58.771Z,11.95
2022-10-04T06:24:31.788Z,11.92
2022-10-04T06:27:11.128Z,11.90
2022-10-04T06:29:44.593Z,11.90
2022-10-04T06:32:41.339Z,11.94
2022-10-04T06:35:30.865Z,12.00
2022-10-04T06:38:26.412Z,12.14
2022-10-04T06:41:11.712Z,12.14
2022-10-04T06:43:59.708Z,12.13
2022-10-04T06:46:37.958Z,12.20
2022-10-04T06:49:37.666Z,12.23
2022-10-04T06:52:32.334Z,12.11
2022-10-04T06:55:34.717Z,12.31
2022-10-04T06:58:23.863Z,12.32
2022-10-04T07:01:02.183Z,12.43
2022-10-04T07:03:38.537Z,12.34
2022-10-04T07:06:11.444Z,12.40
2022-10-04T07:08:48.881Z,12.53
2022-10-04T07:11:24.434Z,12.58
2022-10-04T07:13:58.604Z,12.60
2022-10-04T07:16:40.913Z,12.70
2022-10-04T07:19:33.877Z,12.82
2022-10-04T07:22:12.890Z,12.92
2022-10-04T07:24:54.708Z,12.99
2022-10-04T07:27:30.735Z,13.15
2022-10-04T07:30:02.333Z,13.24
2022-10-04T07:32:38.952Z,13.30
2022-10-04T07:35:19.604Z,13.33
2022-10-04T07:37:57.765Z,13.66
2022-10-04T07:40:32.977Z,13.84
2022-10-04T07:43:09.076Z,13.81
2022-10-04T07:45:41.748Z,13.89
2022-10-04T07:48:19.859Z,14.04
2022-10-04T07:51:00.747Z,14.80
2022-10-04T07:53:36.771Z,15.79
2022-10-04T07:56:13.631Z,16.67
2022-10-04T07:58:54.510Z,17.27
2022-10-04T08:01:35.009Z,17.85
2022-10-04T08:04:30.140Z,19.10
2022-10-04T08:07:03.346Z,19.77
2022-10-04T08:09:50.339Z,19.61
2022-10-04T08:12:28.018Z,20.00
2022-10-04T08:15:14.051Z,20.80
2022-10-04T08:17:56.391Z,21.31
2022-10-04T08:20:44.215Z,21.37
2022-10-04T08:23:32.484Z,21.64
2022-10-04T08:26:17.842Z,20.26
2022-10-04T08:29:23.169Z,21.28
2022-10-04T08:32:05.683Z,22.04
2022-10-04T08:34:53.560Z,21.46
2022-10-04T08:37:36.340Z,21.19
2022-10-04T08:40:35.847Z,21.50
2022-10-04T08:43:30.717Z,20.47
2022-10-04T08:46:35.976Z,19.63
2022-10-04T08:49:33.328Z,19.45
2022-10-04T08:52:29.942Z,18.66
2022-10-04T08:55:27.532Z,18.36
2022-10-04T08:58:15.967Z,18.15
2022-10-04T09:01:02.592Z,18.34
2022-10-04T09:04:10.828Z,18.51
2022-10-04T09:06:47.391Z,18.56
2022-10-04T09:09:53.091Z,18.59
2022-10-04T09:12:51.060Z,18.93
2022-10-04T09:15:31.481Z,20.45
2022-10-04T09:18:11.439Z,21.53
2022-10-04T09:21:01.172Z,22.65
2022-10-04T09:24:00.128Z,23.08
2022-10-04T09:26:43.459Z,23.85
2022-10-04T09:29:42.187Z,23.88
2022-10-04T09:32:43.056Z,23.07
2022-10-04T09:35:43.272Z,23.04
2022-10-04T09:38:32.162Z,21.70
2022-10-04T09:41:31.176Z,22.35
2022-10-04T09:44:21.776Z,22.89
2022-10-04T09:47:21.700Z,23.90
2022-10-04T09:50:14.037Z,24.05
2022-10-04T09:52:54.081Z,23.99
2022-10-04T09:55:45.670Z,24.82
2022-10-04T09:58:53.473Z,25.19
2022-10-04T10:01:32.295Z,24.19
2022-10-04T10:04:44.199Z,25.52
2022-10-04T10:07:28.808Z,25.75
2022-10-04T10:10:22.167Z,25.06
2022-10-04T10:13:34.933Z,25.34
2022-10-04T10:16:09.748Z,24.29
2022-10-04T10:18:54.058Z,23.97
2022-10-04T10:21:39.499Z,23.95
2022-10-04T10:24:40.419Z,24.56
2022-10-04T10:27:23.903Z,23.69
2022-10-04T10:30:14.631Z,24.36
2022-10-04T10:33:32.214Z,24.83
2022-10-04T10:36:31.628Z,24.62
2022-10-04T10:39:30.389Z,25.06
2022-10-04T10:42:30.144Z,25.78
2022-10-04T10:45:22.659Z,25.48
2022-10-04T10:47:59.774Z,23.75
2022-10-04T10:51:03.515Z,24.91
2022-10-04T10:54:01.609Z,24.65
2022-10-04T10:56:47.046Z,24.20
2022-10-04T10:59:58.496Z,23.59
2022-10-04T11:03:11.786Z,23.37
2022-10-04T11:06:10.244Z,23.97
2022-10-04T11:09:08.817Z,24.91
2022-10-04T11:11:53.452Z,24.28
2022-10-04T11:14:58.339Z,24.40
2022-10-04T11:18:09.297Z,24.37
2022-10-04T11:21:12.114Z,24.40
2022-10-04T11:24:32.209Z,24.33
2022-10-04T11:27:14.036Z,24.60
2022-10-04T11:30:23.632Z,24.62
2022-10-04T11:33:45.127Z,25.00
2022-10-04T11:36:39.224Z,25.56
2022-10-04T11:39:38.622Z,25.28
2022-10-04T11:42:22.344Z,24.63
2022-10-04T11:45:10.077Z,25.25
2022-10-04T11:47:48.899Z,24.77
2022-10-04T11:50:33.000Z,24.68
2022-10-04T11:53:32.409Z,24.01
2022-10-04T11:56:18.204Z,24.21
2022-10-04T11:59:03.390Z,24.64
2022-10-04T12:02:02.963Z,25.10
2022-10-04T12:05:04.611Z,24.70
2022-10-04T12:07:47.900Z,24.73
2022-10-04T12:10:27.100Z,25.64
2022-10-04T12:13:20.505Z,25.43
2022-10-04T12:16:13.204Z,25.15
2022-10-04T12:19:15.628Z,24.21
2022-10-04T12:22:23.412Z,23.90
2022-10-04T12:25:23.308Z,23.64
2022-10-04T12:28:18.382Z,23.59
2022-10-04T12:31:10.562Z,23.80
2022-10-04T12:33:47.870Z,23.19
2022-10-04T12:36:44.553Z,23.45
2022-10-04T12:39:35.577Z,23.41
2022-10-04T12:42:19.421Z,23.95
2022-10-04T12:45:03.822Z,23.98
2022-10-04T12:47:59.143Z,23.52
2022-10-04T12:50:45.854Z,23.89
2022-10-04T12:53:32.035Z,24.49
2022-10-04T12:56:13.234Z,24.07
2022-10-04T12:59:00.196Z,24.64
2022-10-04T13:01:38.248Z,24.76
2022-10-04T13:04:26.316Z,24.97
2022-10-04T13:07:24.319Z,25.07
2022-10-04T13:10:23.692Z,24.74
2022-10-04T13:13:19.332Z,24.65
2022-10-04T13:18:56.501Z,24.71
2022-10-04T13:22:03.324Z,24.06
2022-10-04T13:24:57.548Z,23.98
2022-10-04T13:27:42.066Z,23.53
2022-10-04T13:30:23.512Z,23.33
2022-10-04T13:33:01.918Z,23.39
2022-10-04T13:35:36.997Z,23.58
2022-10-04T13:38:40.964Z,24.37
2022-10-04T13:41:26.021Z,24.20
2022-10-04T13:44:30.879Z,23.61
2022-10-04T13:47:27.865Z,23.27
2022-10-04T13:50:18.979Z,22.55
2022-10-04T13:53:09.049Z,22.85
2022-10-04T13:56:00.931Z,22.65
2022-10-04T13:58:39.373Z,22.91
2022-10-04T14:01:48.332Z,22.93
2022-10-04T14:04:47.101Z,23.20
2022-10-04T14:08:00.146Z,22.75
2022-10-04T14:10:53.764Z,22.78
2022-10-04T14:14:10.351Z,22.55
2022-10-04T14:17:13.482Z,22.47
2022-10-04T14:20:06.905Z,22.49
2022-10-04T14:22:57.225Z,22.25
2022-10-04T14:25:56.421Z,22.00
2022-10-04T14:28:54.672Z,22.14
2022-10-04T14:31:40.269Z,22.41
2022-10-04T14:34:51.252Z,22.41
2022-10-04T14:37:53.338Z,22.68
2022-10-04T14:40:47.518Z,22.38
2022-10-04T14:43:56.675Z,22.56
2022-10-04T14:46:35.861Z,22.25
2022-10-04T14:49:14.137Z,22.05
2022-10-04T14:52:08.437Z,21.91
2022-10-04T14:54:53.210Z,21.51
2022-10-04T14:57:42.385Z,21.15
2022-10-04T15:00:21.632Z,20.96
2022-10-04T15:03:14.411Z,20.99
2022-10-04T15:06:00.501Z,21.16
2022-10-04T15:08:48.835Z,21.05
2022-10-04T15:11:23.089Z,21.09
2022-10-04T15:13:56.678Z,21.10
2022-10-04T15:16:45.721Z,21.12
2022-10-04T15:19:29.429Z,21.05
2022-10-04T15:22:07.831Z,20.87
2022-10-04T15:24:49.424Z,20.68
2022-10-04T15:27:52.474Z,20.44
2022-10-04T15:30:37.392Z,20.43
2022-10-04T15:33:38.860Z,20.26
2022-10-04T15:36:47.550Z,20.32
2022-10-04T15:39:47.260Z,20.12
2022-10-04T15:42:25.114Z,19.96
2022-10-04T15:45:30.041Z,19.84
2022-10-04T15:48:20.568Z,19.77
2022-10-04T15:51:05.637Z,19.57
2022-10-04T15:53:58.324Z,19.38
2022-10-04T15:56:43.928Z,19.22
2022-10-04T15:59:31.783Z,19.13
2022-10-04T16:02:27.231Z,19.07
2022-10-04T16:05:15.060Z,18.93
2022-10-04T16:08:05.456Z,18.79
2022-10-04T16:10:58.649Z,18.74
2022-10-04T16:13:46.635Z,18.63
2022-10-04T16:16:51.671Z,18.67
2022-10-04T16:19:33.941Z,18.50
2022-10-04T16:22:17.617Z,18.43
2022-10-04T16:24:52.193Z,18.38
2022-10-04T16:27:51.570Z,18.22
2022-10-04T16:30:28.864Z,18.20
2022-10-04T16:33:27.520Z,18.09
2022-10-04T16:36:15.944Z,18.06
2022-10-04T16:39:03.489Z,18.01
2022-10-04T16:41:43.636Z,18.01
2022-10-04T16:44:31.707Z,17.97
2022-10-04T16:47:04.013Z,17.86
2022-10-04T16:49:41.402Z,17.79
2022-10-04T16:52:50.786Z,17.68
2022-10-04T16:55:31.406Z,17.55
2022-10-04T16:58:31.613Z,17.52
2022-10-04T17:01:32.331Z,17.47
2022-10-04T17:04:21.472Z,17.38
2022-10-04T17:06:55.941Z,17.25
2022-10-04T17:09:32.435Z,17.23
2022-10-04T17:12:13.667Z,17.13
2022-10-04T17:14:59.772Z,17.09
2022-10-04T17:17:47.124Z,17.07
2022-10-04T17:20:30.020Z,17.02
2022-10-04T17:23:13.106Z,16.95
2022-10-04T17:25:51.900Z,16.84
2022-10-04T17:28:30.663Z,16.79
2022-10-04T17:31:11.875Z,16.69
2022-10-04T17:33:54.206Z,16.65
2022-10-04T17:36:40.712Z,16.66
2022-10-04T17:39:26.783Z,16.56
2022-10-04T17:42:09.336Z,16.48
2022-10-04T17:45:03.124Z,16.49
2022-10-04T17:47:51.403Z,16.39
2022-10-04T17:50:40.453Z,16.31
2022-10-04T17:53:32.921Z,16.25
2022-10-04T17:56:05.260Z,16.11
2022-10-04T17:58:45.435Z,16.07
2022-10-04T18:01:21.365Z,16.06
2022-10-04T18:03:56.459Z,16.02
2022-10-04T18:06:34.641Z,15.93
2022-10-04T18:09:18.432Z,15.86
2022-10-04T18:11:54.110Z,15.82
2022-10-04T18:14:59.409Z,15.77
2022-10-04T18:17:35.589Z,15.70
2022-10-04T18:20:27.089Z,15.73
2022-10-04T18:23:03.088Z,15.63
2022-10-04T18:25:35.831Z,15.63
2022-10-04T18:28:14.761Z,15.61
2022-10-04T18:31:01.696Z,15.55
2022-10-04T18:33:49.298Z,15.52
2022-10-04T18:36:23.530Z,15.49
2022-10-04T18:39:18.162Z,15.38
2022-10-04T18:42:03.746Z,15.45
2022-10-04T18:44:46.879Z,15.32
2022-10-04T18:47:21.445Z,15.30
2022-10-04T18:49:54.849Z,15.28
2022-10-04T18:52:42.692Z,15.33
2022-10-04T18:55:25.340Z,15.29
2022-10-04T18:58:21.469Z,15.24
2022-10-04T19:01:13.982Z,15.22
2022-10-04T19:03:50.154Z,15.19
2022-10-04T19:06:27.284Z,15.11
2022-10-04T19:09:04.803Z,15.10
2022-10-04T19:11:43.002Z,15.15
2022-10-04T19:14:28.301Z,15.07
2022-10-04T19:17:02.870Z,15.11
2022-10-04T19:19:44.928Z,15.04
2022-10-04T19:22:27.693Z,15.03
2022-10-04T19:25:13.927Z,14.98
2022-10-04T19:27:51.883Z,14.97
2022-10-04T19:30:27.620Z,14.93
2022-10-04T19:33:18.909Z,14.88
2022-10-04T19:36:03.711Z,14.90
2022-10-04T19:38:52.423Z,14.83
2022-10-04T19:41:35.668Z,14.86
2022-10-04T19:44:14.209Z,14.92
2022-10-04T19:46:56.155Z,14.94
2022-10-04T19:49:36.141Z,14.89
2022-10-04T19:52:23.091Z,14.91
2022-10-04T19:54:56.162Z,14.87
2022-10-04T19:57:37.027Z,14.86
2022-10-04T20:00:13.675Z,14.85
2022-10-04T20:02:48.949Z,14.87
2022-10-04T20:05:25.290Z,14.88
2022-10-04T20:08:04.853Z,14.86
2022-10-04T20:10:38.076Z,14.82
2022-10-04T20:13:17.611Z,14.80
2022-10-04T20:15:49.731Z,14.79
2022-10-04T20:18:50.006Z,14.78
2022-10-04T20:21:32.196Z,14.84
2022-10-04T20:24:02.857Z,14.88
2022-10-04T20:27:01.490Z,14.85
2022-10-04T20:30:09.347Z,14.83
2022-10-04T20:32:57.776Z,14.75
2022-10-04T20:36:07.056Z,14.72
2022-10-04T20:38:59.675Z,14.68
2022-10-04T20:42:23.132Z,14.66
2022-10-04T20:44:57.010Z,14.69
2022-10-04T20:47:34.279Z,14.62
2022-10-04T20:50:06.823Z,14.71
2022-10-04T20:52:39.109Z,14.73
2022-10-04T20:55:20.703Z,14.72
2022-10-04T20:57:50.250Z,14.76
2022-10-04T21:00:23.121Z,14.79
2022-10-04T21:02:53.139Z,14.76
2022-10-04T21:05:27.206Z,14.81
2022-10-04T21:08:14.709Z,14.83
2022-10-04T21:11:26.173Z,14.75
2022-10-04T21:14:00.396Z,14.69
2022-10-04T21:16:41.149Z,14.71
2022-10-04T21:19:32.433Z,14.69
2022-10-04T21:22:03.756Z,14.64
2022-10-04T21:24:40.957Z,14.58
2022-10-04T21:27:12.705Z,14.61
2022-10-04T21:29:44.858Z,14.63
2022-10-04T21:32:14.423Z,14.64
2022-10-04T21:34:59.360Z,14.57
2022-10-04T21:37:29.168Z,14.51
2022-10-04T21:39:58.677Z,14.48
2022-10-04T21:42:28.449Z,14.44
2022-10-04T21:45:00.612Z,14.58
2022-10-04T21:47:30.131Z,14.68
2022-10-04T21:49:59.667Z,14.66
2022-10-04T21:52:29.135Z,14.63
2022-10-04T21:54:58.845Z,14.57
2022-10-04T21:57:33.206Z,14.53
2022-10-04T22:00:09.655Z,14.65
2022-10-04T22:02:39.293Z,14.61
2022-10-04T22:05:09.303Z,14.63
2022-10-04T22:07:38.801Z,14.65
2022-10-04T22:10:08.886Z,14.69
2022-10-04T22:12:38.449Z,14.75
2022-10-04T22:15:12.405Z,14.72
2022-10-04T22:17:42.189Z,14.70
2022-10-04T22:20:12.490Z,14.70
2022-10-04T22:22:42.107Z,14.59
2022-10-04T22:25:17.787Z,14.48
2022-10-04T22:27:48.164Z,14.40
2022-10-04T22:30:28.408Z,14.39
2022-10-04T22:32:59.580Z,14.34
2022-10-04T22:35:34.710Z,14.30
2022-10-04T22:38:04.641Z,14.30
2022-10-04T22:40:34.400Z,14.32
2022-10-04T22:43:04.526Z,14.24
2022-10-04T22:45:36.682Z,14.24
2022-10-04T22:48:16.506Z,14.28
2022-10-04T22:50:46.240Z,14.26
2022-10-04T22:53:19.505Z,14.30
2022-10-04T22:55:50.525Z,14.25
2022-10-04T22:58:21.157Z,14.27
2022-10-04T23:00:53.395Z,14.36
2022-10-04T23:03:31.391Z,14.37
2022-10-04T23:06:01.157Z,14.38
2022-10-04T23:08:31.929Z,14.32
2022-10-04T23:11:02.682Z,14.30
2022-10-04T23:13:32.336Z,14.44
2022-10-04T23:16:13.552Z,14.45
2022-10-04T23:18:43.304Z,14.45
2022-10-04T23:21:22.166Z,14.53
2022-10-04T23:23:52.999Z,14.52
2022-10-04T23:26:26.136Z,14.54
2022-10-04T23:28:56.036Z,14.54
2022-10-04T23:31:29.745Z,14.51
2022-10-04T23:33:59.956Z,14.47
2022-10-04T23:36:29.727Z,14.47
2022-10-04T23:39:05.714Z,14.47
2022-10-04T23:41:35.237Z,14.48
2022-10-04T23:44:04.829Z,14.37
2022-10-04T23:46:36.960Z,14.51
2022-10-04T23:49:06.489Z,14.55
2022-10-04T23:51:36.587Z,14.52
2022-10-04T23:54:08.616Z,14.48
2022-10-04T23:56:38.223Z,14.40
2022-10-04T23:59:07.871Z,14.41
